Time;durP1;ratioP1;P1;durP2;ratioP2;P2;SDS_P1;SDS_P2;PMS_P1;PMS_P2;Temp;Humidity;BMP_temperature;BMP_pressure;BME280_temperature;BME280_humidity;BME280_pressure;Samples;Min_cycle;Max_cycle;Signal;HPM_P1;HPM_P2
2021/11/30 00:01:45;;;;;;;0.52;0.40;;;19.10;57.20;;;;;;6188585;23;20379;-69
2021/11/30 00:04:12;;;;;;;0.85;0.40;;;19.10;57.20;;;;;;6163958;23;20067;-69
2021/11/30 00:06:37;;;;;;;0.50;0.50;;;19.10;57.20;;;;;;6163818;23;20028;-69
2021/11/30 00:09:22;;;;;;;0.47;0.47;;;19.10;57.20;;;;;;6188225;23;20047;-69
2021/11/30 00:11:49;;;;;;;0.55;0.30;;;19.10;57.20;;;;;;6192858;23;20449;-69
2021/11/30 00:14:14;;;;;;;4.10;0.60;;;19.10;57.20;;;;;;6188476;23;20001;-69
2021/11/30 00:16:40;;;;;;;0.40;0.40;;;19.10;57.30;;;;;;6188761;23;20001;-69
2021/11/30 00:19:06;;;;;;;0.30;0.20;;;19.10;57.30;;;;;;6214957;23;20348;-69
2021/11/30 00:21:31;;;;;;;0.47;0.30;;;19.10;57.30;;;;;;6188981;23;20440;-69
2021/11/30 00:23:57;;;;;;;1.27;0.43;;;19.10;58.30;;;;;;6214600;23;20437;-69
2021/11/30 00:26:22;;;;;;;1.48;0.52;;;19.10;57.30;;;;;;6214789;23;20003;-69
2021/11/30 00:28:48;;;;;;;0.50;0.30;;;19.10;57.30;;;;;;6214825;23;20016;-69
2021/11/30 00:31:14;;;;;;;0.80;0.50;;;19.10;57.30;;;;;;6188338;23;20384;-69
2021/11/30 00:33:39;;;;;;;1.90;0.50;;;19.10;57.30;;;;;;6214857;23;20001;-69
2021/11/30 00:36:05;;;;;;;0.77;0.40;;;19.10;57.30;;;;;;6214991;23;19997;-69
2021/11/30 00:38:31;;;;;;;0.57;0.40;;;19.10;57.40;;;;;;6187906;23;20448;-69
2021/11/30 00:40:57;;;;;;;0.55;0.40;;;19.10;57.40;;;;;;6188401;23;20028;-69
2021/11/30 00:43:26;;;;;;;0.40;0.40;;;19.10;57.40;;;;;;6214664;23;20448;-69
2021/11/30 00:46:11;;;;;;;0.40;0.40;;;19.10;57.40;;;;;;6189123;23;20000;-69
2021/11/30 00:48:37;;;;;;;1.65;0.30;;;19.10;58.40;;;;;;6192402;23;20067;-69
2021/11/30 00:51:07;;;;;;;0.85;0.43;;;19.10;57.50;;;;;;6163516;23;20436;-69
2021/11/30 00:53:33;;;;;;;0.57;0.50;;;19.10;57.40;;;;;;6214201;23;20381;-69
2021/11/30 00:55:59;;;;;;;0.30;0.30;;;19.10;57.50;;;;;;6214893;23;20036;-69
2021/11/30 00:58:24;;;;;;;1.17;0.60;;;19.10;58.40;;;;;;6214549;23;20027;-69
2021/11/30 01:00:50;;;;;;;0.52;0.30;;;19.10;57.40;;;;;;6214769;23;20340;-69
2021/11/30 01:03:15;;;;;;;0.38;0.38;;;19.10;57.50;;;;;;6214469;23;20000;-69
2021/11/30 01:05:41;;;;;;;0.88;0.40;;;19.10;57.50;;;;;;6188147;23;20005;-69
2021/11/30 01:08:07;;;;;;;0.28;0.28;;;19.10;57.50;;;;;;6187846;23;20007;-69
2021/11/30 01:10:33;;;;;;;0.65;0.40;;;19.10;57.50;;;;;;6188057;23;20015;-69
2021/11/30 01:12:59;;;;;;;0.40;0.30;;;19.10;57.50;;;;;;6163481;23;20340;-69
2021/11/30 01:15:24;;;;;;;1.15;0.50;;;19.10;57.50;;;;;;6214762;23;20005;-69
2021/11/30 01:17:50;;;;;;;0.80;0.30;;;19.10;57.50;;;;;;6188141;23;20103;-69
2021/11/30 01:20:16;;;;;;;0.47;0.40;;;19.10;57.50;;;;;;6187536;23;20036;-69
2021/11/30 01:22:41;;;;;;;0.25;0.25;;;19.10;57.50;;;;;;6214290;23;20335;-69
2021/11/30 01:25:08;;;;;;;0.38;0.38;;;19.10;57.50;;;;;;6163337;23;20427;-69
2021/11/30 01:27:33;;;;;;;0.43;0.40;;;19.10;57.60;;;;;;6188030;23;20016;-69
2021/11/30 01:29:59;;;;;;;1.40;0.30;;;19.10;58.60;;;;;;6188122;23;20504;-69
2021/11/30 01:32:25;;;;;;;0.22;0.22;;;19.10;57.60;;;;;;6187958;23;20008;-69
2021/11/30 01:34:50;;;;;;;0.28;0.28;;;19.10;57.60;;;;;;6188151;23;20009;-69
2021/11/30 01:37:16;;;;;;;0.30;0.30;;;19.10;57.60;;;;;;6213973;23;20341;-69
2021/11/30 01:39:48;;;;;;;0.30;0.28;;;19.10;57.60;;;;;;6187898;23;20007;-69
2021/11/30 01:42:14;;;;;;;2.00;0.60;;;19.10;57.60;;;;;;6187873;23;20012;-69
2021/11/30 01:44:48;;;;;;;0.50;0.40;;;19.10;57.60;;;;;;6214415;23;19997;-70
2021/11/30 01:49:59;;;;;;;0.57;0.45;;;19.10;57.60;;;;;;6169703;23;20026;-70
2021/11/30 01:52:25;;;;;;;1.77;0.50;;;19.10;57.80;;;;;;6188120;23;20000;-70
2021/11/30 01:54:51;;;;;;;0.60;0.40;;;19.10;57.70;;;;;;6163322;23;20007;-70
2021/11/30 01:57:19;;;;;;;0.50;0.30;;;19.10;57.70;;;;;;6187972;23;20011;-70
2021/11/30 01:59:45;;;;;;;0.85;0.35;;;19.10;57.70;;;;;;6214291;23;20340;-70
2021/11/30 02:02:11;;;;;;;0.32;0.30;;;19.10;57.70;;;;;;6188124;23;19996;-70
2021/11/30 02:04:37;;;;;;;0.57;0.50;;;19.10;57.70;;;;;;6187538;23;19997;-70
2021/11/30 02:07:03;;;;;;;1.55;0.30;;;19.10;57.70;;;;;;6163116;23;20445;-70
2021/11/30 02:09:29;;;;;;;0.40;0.30;;;19.10;57.80;;;;;;6188062;23;20004;-70
2021/11/30 02:11:56;;;;;;;0.50;0.20;;;19.10;57.80;;;;;;6187944;23;20387;-70
2021/11/30 02:14:21;;;;;;;2.15;0.35;;;19.10;57.80;;;;;;6214108;23;20070;-70
2021/11/30 02:16:48;;;;;;;0.68;0.40;;;19.10;57.80;;;;;;6187966;23;20004;-70
2021/11/30 02:19:14;;;;;;;0.30;0.28;;;19.10;57.80;;;;;;6187546;23;20004;-70
2021/11/30 02:21:40;;;;;;;0.30;0.30;;;19.10;57.80;;;;;;6187890;23;20001;-70
2021/11/30 02:24:07;;;;;;;0.40;0.30;;;19.10;57.90;;;;;;6214420;23;20007;-70
2021/11/30 02:26:34;;;;;;;0.85;0.40;;;19.10;57.90;;;;;;6187477;23;20393;-70
2021/11/30 02:29:02;;;;;;;0.43;0.38;;;19.10;57.80;;;;;;6163479;23;20074;-70
2021/11/30 02:31:30;;;;;;;1.08;0.40;;;19.10;57.90;;;;;;6215704;23;20035;-70
2021/11/30 02:33:55;;;;;;;0.70;0.25;;;19.10;57.90;;;;;;6164747;23;20115;-70
2021/11/30 02:36:30;;;;;;;0.47;0.32;;;19.10;57.90;;;;;;6189622;23;20024;-70
2021/11/30 02:39:00;;;;;;;0.30;0.30;;;19.10;57.90;;;;;;6216005;23;20070;-70
2021/11/30 02:41:25;;;;;;;0.50;0.40;;;19.10;57.90;;;;;;6189716;23;20059;-70
2021/11/30 02:43:51;;;;;;;0.52;0.40;;;19.10;57.90;;;;;;6164604;23;20020;-70
2021/11/30 02:46:34;;;;;;;0.52;0.40;;;19.10;57.90;;;;;;6216128;23;20463;-70
2021/11/30 02:49:00;;;;;;;0.55;0.30;;;19.10;57.90;;;;;;6189242;23;20055;-69
2021/11/30 02:51:26;;;;;;;0.57;0.30;;;19.10;57.90;;;;;;6187505;23;20005;-68
2021/11/30 02:53:54;;;;;;;0.50;0.30;;;19.10;58.10;;;;;;6214890;23;19996;-69
2021/11/30 02:56:19;;;;;;;0.45;0.30;;;19.10;58.00;;;;;;6163555;23;20024;-69
2021/11/30 02:58:45;;;;;;;0.20;0.20;;;19.10;58.00;;;;;;6214683;23;20051;-69
2021/11/30 03:01:12;;;;;;;2.28;0.40;;;19.10;58.00;;;;;;6214639;23;20540;-69
2021/11/30 03:03:38;;;;;;;0.30;0.30;;;19.10;58.00;;;;;;6214274;23;19996;-69
2021/11/30 03:06:03;;;;;;;0.28;0.28;;;19.10;58.00;;;;;;6214885;23;20050;-69
2021/11/30 03:08:29;;;;;;;0.47;0.38;;;19.10;58.00;;;;;;6214555;23;19997;-69
2021/11/30 03:10:55;;;;;;;0.30;0.30;;;19.10;58.00;;;;;;6164407;23;20436;-69
2021/11/30 03:13:21;;;;;;;1.10;0.88;;;19.10;58.00;;;;;;6189381;23;20001;-69
2021/11/30 03:15:53;;;;;;;0.75;0.40;;;19.10;58.00;;;;;;6189165;23;20007;-69
2021/11/30 03:18:20;;;;;;;0.85;0.40;;;19.10;58.00;;;;;;6215271;23;20001;-70
2021/11/30 03:20:46;;;;;;;0.45;0.30;;;19.10;58.00;;;;;;6189202;23;20009;-70
2021/11/30 03:23:11;;;;;;;0.45;0.30;;;19.10;58.10;;;;;;6215464;23;20313;-70
2021/11/30 03:25:37;;;;;;;1.60;0.40;;;19.10;58.10;;;;;;6215339;23;19997;-70
2021/11/30 03:28:03;;;;;;;1.17;0.30;;;19.10;58.10;;;;;;6188920;23;20013;-70
2021/11/30 03:30:29;;;;;;;1.80;0.32;;;19.10;58.10;;;;;;6215180;23;20083;-70
2021/11/30 03:35:40;;;;;;;0.30;0.30;;;19.10;58.10;;;;;;6103018;23;20018;-70
2021/11/30 03:38:06;;;;;;;0.20;0.20;;;19.10;58.20;;;;;;6123775;23;20080;-70
2021/11/30 03:40:32;;;;;;;0.25;0.20;;;19.10;58.20;;;;;;6123006;23;20045;-70
2021/11/30 03:42:57;;;;;;;1.35;0.40;;;19.10;58.20;;;;;;6098821;23;20392;-70
2021/11/30 03:45:23;;;;;;;1.30;0.40;;;19.10;58.20;;;;;;6099023;23;20057;-70
2021/11/30 03:47:48;;;;;;;1.10;0.30;;;19.10;58.20;;;;;;6098558;23;20077;-70
2021/11/30 03:50:14;;;;;;;0.25;0.22;;;19.10;58.20;;;;;;6097770;23;20033;-70
2021/11/30 03:52:40;;;;;;;2.15;0.47;;;19.10;58.20;;;;;;6097893;23;20482;-70
2021/11/30 03:55:06;;;;;;;0.20;0.20;;;19.10;58.20;;;;;;6097965;23;20077;-70
2021/11/30 03:57:32;;;;;;;0.43;0.22;;;19.10;58.30;;;;;;6122435;23;20017;-70
2021/11/30 03:59:57;;;;;;;1.30;0.40;;;19.10;58.30;;;;;;6122257;23;20010;-70
2021/11/30 04:02:23;;;;;;;0.93;0.30;;;19.10;58.30;;;;;;6122068;23;20002;-70
2021/11/30 04:04:49;;;;;;;1.75;0.40;;;19.10;58.30;;;;;;6097772;23;20045;-70
2021/11/30 04:07:16;;;;;;;0.50;0.43;;;19.10;58.30;;;;;;6122867;23;20006;-70
2021/11/30 04:09:41;;;;;;;0.40;0.40;;;19.10;58.30;;;;;;6121418;23;20010;-70
2021/11/30 04:12:08;;;;;;;1.02;0.40;;;19.10;58.30;;;;;;6144479;23;20011;-69
2021/11/30 04:14:34;;;;;;;0.50;0.35;;;19.10;58.30;;;;;;6213928;23;20008;-69
2021/11/30 04:16:59;;;;;;;2.70;0.47;;;19.10;58.30;;;;;;6213632;23;20474;-69
2021/11/30 04:19:25;;;;;;;0.85;0.43;;;19.10;58.30;;;;;;6186597;23;20115;-69
2021/11/30 04:21:51;;;;;;;0.90;0.40;;;19.10;58.30;;;;;;6162560;23;20445;-69
2021/11/30 04:24:16;;;;;;;0.40;0.40;;;19.10;58.40;;;;;;6188534;23;20522;-69
2021/11/30 04:26:42;;;;;;;1.77;0.73;;;19.10;58.40;;;;;;6214519;23;20510;-69
2021/11/30 04:29:08;;;;;;;1.15;0.40;;;19.10;58.40;;;;;;6188328;23;20009;-69
2021/11/30 04:31:35;;;;;;;0.77;0.30;;;19.10;58.40;;;;;;6214248;23;20024;-69
2021/11/30 04:34:03;;;;;;;1.27;0.30;;;19.10;58.40;;;;;;6214846;23;20084;-69
2021/11/30 04:36:28;;;;;;;0.60;0.38;;;19.10;58.40;;;;;;6214884;23;19996;-69
2021/11/30 04:38:56;;;;;;;1.33;0.30;;;19.10;58.40;;;;;;6188205;23;20012;-69
2021/11/30 04:41:22;;;;;;;1.65;0.38;;;19.10;59.40;;;;;;6164636;23;19997;-69
2021/11/30 04:43:47;;;;;;;0.55;0.30;;;19.10;58.40;;;;;;6214680;23;20008;-69
2021/11/30 04:46:18;;;;;;;0.40;0.30;;;19.10;58.40;;;;;;6215273;23;20028;-69
2021/11/30 04:48:53;;;;;;;0.43;0.30;;;19.10;58.50;;;;;;6214782;23;20001;-69
2021/11/30 04:51:19;;;;;;;0.30;0.30;;;19.10;58.40;;;;;;6190437;23;20404;-69
2021/11/30 04:53:46;;;;;;;0.80;0.40;;;19.10;58.50;;;;;;6214146;23;20455;-69
2021/11/30 04:56:14;;;;;;;0.85;0.40;;;19.10;58.50;;;;;;6214807;23;19996;-69
2021/11/30 04:58:40;;;;;;;1.80;0.40;;;19.10;58.50;;;;;;6214343;23;19997;-69
2021/11/30 05:01:06;;;;;;;1.45;0.38;;;19.10;58.50;;;;;;6214572;23;20001;-69
2021/11/30 05:03:31;;;;;;;2.25;0.40;;;19.10;58.50;;;;;;6188338;23;20001;-69
2021/11/30 05:05:57;;;;;;;0.40;0.30;;;19.10;58.50;;;;;;6214583;23;20011;-69
2021/11/30 05:08:22;;;;;;;0.98;0.30;;;19.10;58.60;;;;;;6214534;23;20432;-69
2021/11/30 05:10:48;;;;;;;0.43;0.20;;;19.10;58.60;;;;;;6188154;23;20053;-69
2021/11/30 05:13:14;;;;;;;0.60;0.30;;;19.00;58.50;;;;;;6187847;23;20001;-69
2021/11/30 05:15:39;;;;;;;0.50;0.30;;;19.10;58.60;;;;;;6214451;23;20004;-69
2021/11/30 05:18:05;;;;;;;0.50;0.30;;;19.00;58.50;;;;;;6214790;23;20037;-69
2021/11/30 05:20:31;;;;;;;0.52;0.50;;;19.10;58.60;;;;;;6214401;23;20012;-69
2021/11/30 05:22:56;;;;;;;0.20;0.20;;;19.00;58.60;;;;;;6214467;23;20322;-69
2021/11/30 05:25:22;;;;;;;0.55;0.20;;;19.00;58.60;;;;;;6214637;23;19997;-69
2021/11/30 05:27:49;;;;;;;0.28;0.28;;;19.10;58.70;;;;;;6187359;23;20080;-69
2021/11/30 05:30:18;;;;;;;0.38;0.22;;;19.00;58.60;;;;;;6214572;23;20012;-69
2021/11/30 05:32:43;;;;;;;0.60;0.20;;;19.00;58.60;;;;;;6164480;23;20444;-69
2021/11/30 05:35:09;;;;;;;2.47;0.35;;;19.10;58.70;;;;;;6163246;23;20051;-69
2021/11/30 05:37:35;;;;;;;0.55;0.25;;;19.10;58.70;;;;;;6188279;23;20059;-69
2021/11/30 05:40:01;;;;;;;2.05;0.40;;;19.10;58.70;;;;;;6163193;23;20005;-69
2021/11/30 05:42:27;;;;;;;0.45;0.40;;;19.00;58.60;;;;;;6187642;23;20071;-69
2021/11/30 05:44:52;;;;;;;1.90;0.30;;;19.00;58.70;;;;;;6187894;23;20031;-69
2021/11/30 05:47:18;;;;;;;0.30;0.30;;;19.10;58.70;;;;;;6188157;23;20168;-69
2021/11/30 05:49:44;;;;;;;0.52;0.20;;;19.00;58.70;;;;;;6187931;23;20001;-69
2021/11/30 05:52:10;;;;;;;0.20;0.20;;;19.00;58.70;;;;;;6187974;23;20036;-69
2021/11/30 05:54:36;;;;;;;0.30;0.22;;;19.00;58.70;;;;;;6188025;23;20032;-69
2021/11/30 05:57:03;;;;;;;0.30;0.30;;;19.00;58.70;;;;;;6187720;23;20067;-69
2021/11/30 05:59:35;;;;;;;0.63;0.30;;;19.00;58.70;;;;;;6214465;23;20005;-69
2021/11/30 06:02:01;;;;;;;0.60;0.40;;;19.00;58.80;;;;;;6214356;23;20381;-69
2021/11/30 06:04:27;;;;;;;0.60;0.30;;;19.00;58.80;;;;;;6214335;23;19997;-69
2021/11/30 06:06:53;;;;;;;0.38;0.30;;;19.00;58.80;;;;;;6216385;23;20004;-69
2021/11/30 06:09:18;;;;;;;0.40;0.30;;;19.00;58.80;;;;;;6189784;23;20442;-69
2021/11/30 06:11:45;;;;;;;0.68;0.40;;;19.00;58.80;;;;;;6215791;23;20054;-70
2021/11/30 06:14:11;;;;;;;1.38;0.30;;;19.00;58.80;;;;;;6216360;23;20123;-70
2021/11/30 06:16:36;;;;;;;1.00;0.30;;;19.00;58.80;;;;;;6216231;23;20032;-70
2021/11/30 06:19:02;;;;;;;0.65;0.30;;;19.00;58.80;;;;;;6189518;23;20004;-70
2021/11/30 06:21:28;;;;;;;0.22;0.20;;;19.00;58.80;;;;;;6165249;23;20001;-70
2021/11/30 06:23:53;;;;;;;0.40;0.30;;;19.00;58.80;;;;;;6189413;23;20040;-70
2021/11/30 06:26:19;;;;;;;0.20;0.20;;;19.00;58.90;;;;;;6215836;23;20024;-70
2021/11/30 06:28:45;;;;;;;0.40;0.30;;;19.00;58.80;;;;;;6215916;23;20521;-70
2021/11/30 06:31:10;;;;;;;0.52;0.28;;;19.00;58.90;;;;;;6216198;23;20348;-69
2021/11/30 06:33:36;;;;;;;0.40;0.40;;;19.00;58.80;;;;;;6189730;23;20072;-69
2021/11/30 06:36:02;;;;;;;0.25;0.25;;;19.00;58.90;;;;;;6189641;23;20004;-69
2021/11/30 06:38:28;;;;;;;0.22;0.20;;;19.00;58.90;;;;;;6140189;23;20454;-69
2021/11/30 06:40:53;;;;;;;1.70;0.40;;;19.00;58.90;;;;;;6215516;23;20072;-69
2021/11/30 06:43:19;;;;;;;0.20;0.20;;;19.00;58.90;;;;;;6216073;23;20001;-69
2021/11/30 06:45:45;;;;;;;0.60;0.30;;;19.00;58.90;;;;;;6215879;23;19997;-69
2021/11/30 06:48:11;;;;;;;0.20;0.20;;;19.00;58.90;;;;;;6216140;23;20424;-69
2021/11/30 06:50:36;;;;;;;0.30;0.30;;;19.00;59.00;;;;;;6214719;23;20027;-69
2021/11/30 06:53:02;;;;;;;1.98;0.82;;;19.00;59.00;;;;;;6189777;23;20001;-69
2021/11/30 06:55:28;;;;;;;0.28;0.20;;;19.00;59.00;;;;;;6189643;23;20001;-69
2021/11/30 06:57:53;;;;;;;0.25;0.25;;;19.00;58.90;;;;;;6189609;23;20009;-68
2021/11/30 07:00:22;;;;;;;0.40;0.20;;;19.00;59.00;;;;;;6216271;23;20005;-69
2021/11/30 07:02:49;;;;;;;0.20;0.20;;;19.00;59.90;;;;;;6190451;23;19997;-68
2021/11/30 07:05:21;;;;;;;0.52;0.20;;;19.00;59.00;;;;;;6216307;23;20031;-69
2021/11/30 07:08:13;;;;;;;0.20;0.20;;;19.00;59.00;;;;;;6216002;23;20001;-69
2021/11/30 07:10:51;;;;;;;0.30;0.30;;;19.00;59.10;;;;;;6195361;23;20494;-69
2021/11/30 07:13:22;;;;;;;0.38;0.28;;;19.00;59.00;;;;;;6216202;23;20066;-69
2021/11/30 07:15:54;;;;;;;0.77;0.40;;;19.10;59.00;;;;;;6190717;23;20001;-69
2021/11/30 07:18:19;;;;;;;0.20;0.20;;;19.10;59.00;;;;;;6164953;23;20001;-69
2021/11/30 07:20:45;;;;;;;0.30;0.20;;;19.10;58.90;;;;;;6189546;23;20004;-69
2021/11/30 07:23:11;;;;;;;1.55;0.20;;;19.10;58.90;;;;;;6189372;23;20004;-69
2021/11/30 07:25:37;;;;;;;0.52;0.20;;;19.10;58.90;;;;;;6188227;23;20079;-69
2021/11/30 07:28:04;;;;;;;0.65;0.35;;;19.10;58.90;;;;;;6215229;23;20009;-69
2021/11/30 07:30:30;;;;;;;0.22;0.22;;;19.10;58.90;;;;;;6189646;23;20005;-69
2021/11/30 07:32:55;;;;;;;0.20;0.20;;;19.10;58.80;;;;;;6188829;23;20455;-69
2021/11/30 07:35:23;;;;;;;0.90;0.20;;;19.10;58.80;;;;;;6214143;23;20348;-69
2021/11/30 07:37:49;;;;;;;0.10;0.10;;;19.10;58.70;;;;;;6187962;23;20005;-69
2021/11/30 07:40:15;;;;;;;0.28;0.20;;;19.10;58.80;;;;;;6187319;23;20035;-69
2021/11/30 07:42:42;;;;;;;0.15;0.15;;;19.10;58.70;;;;;;6214035;23;20000;-69
2021/11/30 07:45:09;;;;;;;0.20;0.20;;;19.10;58.70;;;;;;6162077;23;20486;-69
2021/11/30 07:47:34;;;;;;;1.33;0.32;;;19.10;58.70;;;;;;6188057;23;20490;-69
2021/11/30 07:50:00;;;;;;;3.08;0.60;;;19.10;58.60;;;;;;6213339;23;20036;-69
2021/11/30 07:52:26;;;;;;;3.95;0.98;;;19.10;58.60;;;;;;6214193;23;20115;-70
2021/11/30 07:54:52;;;;;;;5.13;0.98;;;19.10;58.70;;;;;;6187705;23;20008;-70
2021/11/30 07:57:18;;;;;;;5.45;1.15;;;19.20;58.80;;;;;;6187829;23;20055;-70
2021/11/30 07:59:43;;;;;;;6.40;1.27;;;19.20;58.70;;;;;;6187585;23;20004;-70
2021/11/30 08:02:09;;;;;;;2.83;1.25;;;19.20;58.70;;;;;;6214230;23;20808;-70
2021/11/30 08:04:34;;;;;;;4.30;0.98;;;19.20;58.60;;;;;;6215069;23;19997;-70
2021/11/30 08:07:01;;;;;;;5.13;1.25;;;19.20;58.60;;;;;;6188206;23;19996;-70
2021/11/30 08:09:27;;;;;;;2.35;1.00;;;19.20;58.60;;;;;;6189280;23;20009;-70
2021/11/30 08:11:54;;;;;;;4.32;1.30;;;19.20;58.60;;;;;;6188720;23;20352;-70
2021/11/30 08:14:20;;;;;;;3.78;0.75;;;19.20;58.60;;;;;;6164542;23;20079;-70
2021/11/30 08:16:46;;;;;;;2.58;0.90;;;19.20;58.50;;;;;;6215095;23;20035;-70
2021/11/30 08:19:11;;;;;;;5.28;1.02;;;19.20;58.60;;;;;;6215069;23;20005;-70
2021/11/30 08:21:38;;;;;;;2.28;0.80;;;19.20;58.50;;;;;;6188222;23;20436;-70
2021/11/30 08:24:03;;;;;;;2.45;0.80;;;19.20;58.50;;;;;;6214971;23;20023;-70
2021/11/30 08:26:29;;;;;;;2.03;0.50;;;19.20;58.50;;;;;;6188673;23;20432;-70
2021/11/30 08:28:55;;;;;;;3.28;0.73;;;19.20;58.50;;;;;;6163251;23;20426;-70
2021/11/30 08:31:20;;;;;;;0.77;0.60;;;19.20;58.50;;;;;;6215019;23;20063;-70
2021/11/30 08:33:46;;;;;;;1.35;0.60;;;19.20;58.40;;;;;;6188447;23;20016;-70
2021/11/30 08:36:12;;;;;;;2.95;1.00;;;19.20;58.40;;;;;;6188022;23;19997;-70
2021/11/30 08:38:37;;;;;;;3.60;0.68;;;19.20;58.40;;;;;;6214935;23;20000;-70
2021/11/30 08:41:03;;;;;;;1.67;0.65;;;19.20;58.40;;;;;;6163467;23;20004;-70
2021/11/30 08:43:29;;;;;;;0.70;0.30;;;19.20;58.40;;;;;;6214972;23;20001;-70
2021/11/30 08:45:55;;;;;;;4.03;0.77;;;19.20;58.40;;;;;;6214774;23;20348;-70
2021/11/30 08:48:24;;;;;;;2.53;0.80;;;19.20;58.40;;;;;;6188255;23;20003;-70
2021/11/30 08:50:50;;;;;;;1.67;0.55;;;19.20;58.40;;;;;;6214559;23;20032;-70
2021/11/30 08:53:17;;;;;;;1.80;0.70;;;19.20;58.30;;;;;;6214804;23;20066;-70
2021/11/30 08:55:42;;;;;;;2.58;0.70;;;19.20;58.40;;;;;;6164474;23;20059;-70
2021/11/30 08:58:08;;;;;;;2.08;0.65;;;19.30;58.40;;;;;;6214618;23;20506;-70
2021/11/30 09:00:34;;;;;;;2.50;0.90;;;19.30;58.40;;;;;;6214709;23;20356;-70
2021/11/30 09:02:59;;;;;;;1.83;0.40;;;19.20;58.30;;;;;;6214654;23;20432;-70
2021/11/30 09:05:25;;;;;;;2.92;0.70;;;19.20;58.30;;;;;;6163208;23;20001;-70
2021/11/30 09:07:51;;;;;;;1.33;0.50;;;19.20;58.20;;;;;;6214693;23;20000;-70
2021/11/30 09:10:16;;;;;;;1.33;0.43;;;19.20;58.30;;;;;;6214540;23;20005;-70
2021/11/30 09:12:42;;;;;;;1.00;0.40;;;19.20;58.30;;;;;;6188128;23;20440;-70
2021/11/30 09:15:08;;;;;;;1.00;0.60;;;19.20;58.20;;;;;;6187974;23;20011;-70
2021/11/30 09:17:37;;;;;;;3.88;0.60;;;19.30;58.30;;;;;;6188205;23;20001;-70
2021/11/30 09:20:07;;;;;;;3.15;0.60;;;19.30;59.20;;;;;;6214475;23;20403;-70
2021/11/30 09:22:32;;;;;;;1.52;0.77;;;19.30;58.20;;;;;;6188693;23;20000;-70
2021/11/30 09:24:59;;;;;;;0.70;0.50;;;19.20;58.20;;;;;;6188076;23;20071;-70
2021/11/30 09:27:26;;;;;;;0.63;0.40;;;19.30;58.20;;;;;;6163347;23;20004;-70
2021/11/30 09:29:52;;;;;;;1.05;0.50;;;19.30;58.20;;;;;;6188208;23;20344;-70
2021/11/30 09:32:18;;;;;;;0.47;0.30;;;19.30;58.20;;;;;;6187980;23;20432;-70
2021/11/30 09:34:44;;;;;;;1.80;0.40;;;19.20;58.10;;;;;;6214432;23;20076;-70
2021/11/30 09:37:10;;;;;;;1.55;0.60;;;19.20;58.10;;;;;;6187970;23;20051;-70
2021/11/30 09:39:35;;;;;;;1.60;0.50;;;19.20;58.10;;;;;;6188822;23;20001;-70
2021/11/30 09:42:03;;;;;;;0.57;0.45;;;19.30;58.10;;;;;;6191383;23;20000;-70
2021/11/30 09:44:32;;;;;;;0.93;0.52;;;19.30;58.10;;;;;;6191686;23;20001;-70
2021/11/30 09:46:59;;;;;;;2.30;0.50;;;19.30;58.10;;;;;;6217785;23;19996;-70
2021/11/30 09:49:26;;;;;;;1.42;0.50;;;19.30;58.10;;;;;;6217515;23;20005;-70
2021/11/30 09:51:51;;;;;;;1.20;0.47;;;19.30;58.10;;;;;;6191425;23;20340;-70
2021/11/30 09:54:17;;;;;;;0.63;0.32;;;19.20;58.00;;;;;;6191143;23;20005;-70
2021/11/30 09:56:43;;;;;;;1.95;0.80;;;19.30;58.10;;;;;;6191539;23;20004;-70
2021/11/30 09:59:09;;;;;;;2.20;0.68;;;19.30;58.00;;;;;;6191126;23;20005;-70
2021/11/30 10:01:34;;;;;;;1.15;0.40;;;19.20;58.00;;;;;;6217969;23;20447;-70
2021/11/30 10:04:02;;;;;;;1.27;0.43;;;19.30;58.00;;;;;;6217349;23;20432;-70
2021/11/30 10:06:28;;;;;;;1.00;0.40;;;19.30;58.00;;;;;;6167505;23;20013;-70
2021/11/30 10:08:56;;;;;;;2.05;0.38;;;19.30;58.00;;;;;;6191161;23;19997;-70
2021/11/30 10:11:36;;;;;;;0.60;0.40;;;19.30;58.00;;;;;;6217615;23;20036;-70
2021/11/30 10:14:13;;;;;;;2.38;0.50;;;19.30;58.00;;;;;;6192846;23;20019;-70
2021/11/30 10:16:40;;;;;;;0.98;0.43;;;19.30;57.90;;;;;;6191749;23;20000;-70
2021/11/30 10:19:05;;;;;;;1.73;0.40;;;19.20;58.00;;;;;;6166119;23;20364;-70
2021/11/30 10:21:31;;;;;;;0.30;0.20;;;19.30;58.00;;;;;;6217819;23;20059;-70
2021/11/30 10:23:59;;;;;;;0.60;0.40;;;19.30;57.90;;;;;;6217665;23;20012;-70
2021/11/30 10:26:36;;;;;;;2.47;0.70;;;19.30;57.90;;;;;;6217556;23;20007;-70
2021/11/30 10:29:11;;;;;;;0.73;0.40;;;19.30;57.90;;;;;;6185864;23;20021;-70
2021/11/30 10:31:45;;;;;;;0.52;0.28;;;19.30;57.90;;;;;;6186255;23;20008;-70
2021/11/30 10:34:19;;;;;;;0.50;0.30;;;19.30;57.90;;;;;;6161086;23;20001;-70
2021/11/30 10:36:54;;;;;;;0.80;0.50;;;19.30;57.90;;;;;;6186279;23;20001;-70
2021/11/30 10:39:21;;;;;;;0.95;0.40;;;19.30;57.90;;;;;;6187355;23;20005;-70
2021/11/30 10:41:48;;;;;;;2.60;0.82;;;19.30;57.90;;;;;;6186039;23;20001;-70
2021/11/30 10:44:14;;;;;;;0.68;0.38;;;19.30;57.90;;;;;;6185987;23;19997;-70
2021/11/30 10:46:39;;;;;;;0.52;0.20;;;19.30;57.80;;;;;;6161011;23;20044;-70
2021/11/30 10:49:05;;;;;;;0.38;0.30;;;19.30;57.80;;;;;;6187327;23;20077;-70
2021/11/30 10:51:44;;;;;;;0.95;0.50;;;19.30;57.80;;;;;;6185260;23;20062;-70
2021/11/30 10:54:10;;;;;;;0.40;0.30;;;19.30;57.70;;;;;;6184536;23;20436;-70
2021/11/30 10:56:35;;;;;;;0.60;0.30;;;19.30;57.80;;;;;;6184415;23;20025;-70
2021/11/30 10:59:01;;;;;;;1.33;0.47;;;19.30;57.80;;;;;;6184369;23;20011;-70
2021/11/30 11:01:27;;;;;;;1.02;0.43;;;19.30;57.80;;;;;;6183902;23;20056;-70
2021/11/30 11:04:05;;;;;;;0.38;0.20;;;19.30;57.80;;;;;;6184288;23;20012;-70
2021/11/30 11:06:31;;;;;;;0.50;0.40;;;19.30;57.70;;;;;;6185766;23;20008;-70
2021/11/30 11:09:02;;;;;;;0.50;0.40;;;19.30;57.80;;;;;;6184325;23;20047;-70
2021/11/30 11:11:34;;;;;;;0.73;0.40;;;19.30;57.70;;;;;;6160151;23;20465;-70
2021/11/30 11:14:00;;;;;;;0.47;0.47;;;19.30;57.70;;;;;;6160718;23;20067;-70
2021/11/30 11:16:27;;;;;;;0.20;0.20;;;19.20;57.70;;;;;;6185140;23;20001;-70
2021/11/30 11:19:02;;;;;;;0.32;0.20;;;19.20;57.70;;;;;;6184228;23;20005;-70
2021/11/30 11:21:34;;;;;;;0.95;0.30;;;19.20;57.60;;;;;;6160441;23;20001;-70
2021/11/30 11:24:21;;;;;;;0.40;0.40;;;19.20;57.70;;;;;;6184268;23;20004;-70
2021/11/30 11:26:52;;;;;;;0.90;0.30;;;19.20;57.70;;;;;;6185750;23;20001;-70
2021/11/30 11:29:20;;;;;;;0.20;0.20;;;19.20;57.60;;;;;;6165015;23;20059;-70
2021/11/30 11:31:55;;;;;;;0.75;0.40;;;19.20;57.70;;;;;;6139465;23;20399;-70
2021/11/30 11:34:24;;;;;;;1.85;0.35;;;19.20;57.60;;;;;;6189039;23;20023;-70
2021/11/30 11:36:50;;;;;;;1.05;0.40;;;19.20;57.60;;;;;;6215723;23;20007;-70
2021/11/30 11:39:18;;;;;;;0.40;0.30;;;19.20;57.60;;;;;;6189009;23;20020;-70
2021/11/30 11:41:44;;;;;;;0.30;0.28;;;19.20;57.60;;;;;;6189265;23;20000;-70
2021/11/30 11:44:11;;;;;;;0.80;0.30;;;19.30;57.60;;;;;;6164357;23;19997;-70
2021/11/30 11:46:37;;;;;;;1.75;0.35;;;19.20;57.60;;;;;;6163789;23;20001;-70
2021/11/30 11:49:04;;;;;;;0.22;0.20;;;19.20;57.60;;;;;;6188943;23;19997;-70
2021/11/30 11:51:52;;;;;;;0.35;0.20;;;19.20;57.60;;;;;;6188950;23;20004;-70
2021/11/30 11:54:29;;;;;;;1.73;0.32;;;19.20;57.50;;;;;;6192844;23;20004;-70
2021/11/30 11:57:01;;;;;;;0.47;0.20;;;19.20;57.50;;;;;;6165938;23;20000;-70
2021/11/30 11:59:38;;;;;;;0.20;0.20;;;19.20;57.50;;;;;;6188792;23;20460;-70
2021/11/30 12:02:24;;;;;;;0.30;0.30;;;19.20;57.50;;;;;;6191201;23;20042;-70
2021/11/30 12:05:06;;;;;;;0.30;0.30;;;19.20;57.30;;;;;;6215427;23;20027;-70
2021/11/30 12:07:58;;;;;;;0.88;0.30;;;19.20;57.60;;;;;;6215287;23;20023;-70
2021/11/30 12:10:25;;;;;;;0.45;0.25;;;19.20;57.40;;;;;;6214940;23;20059;-70
2021/11/30 12:13:00;;;;;;;0.20;0.20;;;19.20;57.50;;;;;;6188936;23;20008;-70
2021/11/30 12:16:05;;;;;;;0.60;0.30;;;19.20;57.50;;;;;;6214662;23;20386;-70
2021/11/30 12:18:39;;;;;;;0.22;0.20;;;19.20;57.30;;;;;;6215021;23;20000;-70
2021/11/30 12:21:23;;;;;;;0.22;0.20;;;19.20;57.50;;;;;;6189059;23;20058;-70
2021/11/30 12:23:50;;;;;;;0.43;0.20;;;19.20;57.40;;;;;;6165857;23;19996;-70
2021/11/30 12:26:31;;;;;;;0.70;0.20;;;19.20;57.50;;;;;;6163995;23;19996;-70
2021/11/30 12:28:57;;;;;;;1.00;0.40;;;19.20;57.30;;;;;;6214540;23;20008;-70
2021/11/30 12:31:36;;;;;;;1.58;0.20;;;19.20;57.50;;;;;;6188477;23;20465;-70
2021/11/30 12:34:03;;;;;;;0.82;0.30;;;19.20;57.30;;;;;;6188677;23;20005;-70
2021/11/30 12:36:30;;;;;;;0.28;0.28;;;19.20;57.50;;;;;;6188316;23;20001;-70
2021/11/30 12:38:56;;;;;;;0.47;0.20;;;19.20;57.40;;;;;;6188203;23;20032;-70
2021/11/30 12:41:22;;;;;;;0.63;0.10;;;19.20;57.30;;;;;;6188263;23;20004;-70
2021/11/30 12:43:48;;;;;;;0.40;0.30;;;19.20;57.60;;;;;;6214458;23;20027;-70
2021/11/30 12:46:27;;;;;;;0.45;0.30;;;19.20;57.30;;;;;;6188400;23;20083;-70
2021/11/30 12:48:53;;;;;;;0.45;0.17;;;19.20;57.30;;;;;;6214982;23;20008;-70
2021/11/30 12:51:22;;;;;;;0.32;0.20;;;19.20;57.30;;;;;;6188171;23;20012;-70
2021/11/30 12:53:47;;;;;;;0.28;0.25;;;19.20;57.30;;;;;;6188441;23;20004;-70
2021/11/30 12:56:13;;;;;;;1.02;0.30;;;19.20;57.30;;;;;;6214705;23;20012;-70